National Weather Service United States Department of Commerce
Click Here for Latest Airport Weather Warnings
 
Latest Huntsville TAF


000
FTUS44 KHUN 241720
TAFHSV
TAF
KHSV 241720Z 2418/2518 16012G20KT P6SM FEW250
FM250500 15014G24KT P6SM SCT150 BKN250 WS020/17040KT
FM251300 16015G28KT P6SM BKN019 PROB30 2514/2515 4SM -SHRA BR
OVC008
FM251600 17015G28KT 6SM -SHRA BR OVC015=

Latest Muscle Shoals TAF


000
FTUS44 KHUN 241720
TAFMSL
TAF
KMSL 241720Z 2418/2518 17011G17KT P6SM FEW250
FM250400 17012G22KT P6SM SCT150 BKN250 WS020/18040KT PROB30
2510/2512 4SM -SHRA BR BKN050
FM251200 18017G26KT 6SM SHRA BR SCT025 BKN050 WS020/19045KT
FM251400 18018G28KT 6SM SHRA BR BKN017=


Back to Main Huntsville Weather Forecast Office Page